createdAt,value
2022-08-28T00:01:37.554Z,20.89
2022-08-28T00:04:04.169Z,21.11
2022-08-28T00:06:30.759Z,21.36
2022-08-28T00:08:57.275Z,21.71
2022-08-28T00:11:23.846Z,21.96
2022-08-28T00:13:50.591Z,22.45
2022-08-28T00:16:18.731Z,22.49
2022-08-28T00:18:47.211Z,22.61
2022-08-28T00:21:14.776Z,22.76
2022-08-28T00:23:42.739Z,22.67
2022-08-28T00:26:10.186Z,22.89
2022-08-28T00:28:39.055Z,23.08
2022-08-28T00:31:05.715Z,23.13
2022-08-28T00:33:33.862Z,22.87
2022-08-28T00:36:01.103Z,23.11
2022-08-28T00:38:28.426Z,23.24
2022-08-28T00:40:57.376Z,23.21
2022-08-28T00:43:33.788Z,23.23
2022-08-28T00:46:02.068Z,23.10
2022-08-28T00:48:28.589Z,22.99
2022-08-28T00:51:13.706Z,23.04
2022-08-28T00:53:40.202Z,22.85
2022-08-28T00:56:12.906Z,22.78
2022-08-28T00:58:41.615Z,22.50
2022-08-28T01:01:09.347Z,22.26
2022-08-28T01:03:36.603Z,22.24
2022-08-28T01:06:03.233Z,22.22
2022-08-28T01:08:30.439Z,22.35
2022-08-28T01:10:58.817Z,22.35
2022-08-28T01:13:26.473Z,22.62
2022-08-28T01:15:54.034Z,22.50
2022-08-28T01:18:22.344Z,22.44
2022-08-28T01:20:56.857Z,22.49
2022-08-28T01:23:24.501Z,22.47
2022-08-28T01:25:52.526Z,22.39
2022-08-28T01:28:19.290Z,22.42
2022-08-28T01:30:49.369Z,22.49
2022-08-28T01:33:16.319Z,22.52
2022-08-28T01:35:44.652Z,22.47
2022-08-28T01:38:12.125Z,22.55
2022-08-28T01:40:46.692Z,22.30
2022-08-28T01:43:14.466Z,22.28
2022-08-28T01:45:42.521Z,22.32
2022-08-28T01:48:09.486Z,22.31
2022-08-28T01:50:56.192Z,22.03
2022-08-28T01:53:33.106Z,22.03
2022-08-28T01:56:18.679Z,22.00
2022-08-28T01:58:45.405Z,21.91
2022-08-28T02:01:13.292Z,21.94
2022-08-28T02:03:40.483Z,22.10
2022-08-28T02:06:07.055Z,21.93
2022-08-28T02:08:33.542Z,21.90
2022-08-28T02:11:00.358Z,21.90
2022-08-28T02:13:27.182Z,21.72
2022-08-28T02:15:54.256Z,21.73
2022-08-28T02:18:20.899Z,21.64
2022-08-28T02:20:47.673Z,21.59
2022-08-28T02:23:15.694Z,21.49
2022-08-28T02:25:44.391Z,21.56
2022-08-28T02:28:11.388Z,21.39
2022-08-28T02:30:38.760Z,21.44
2022-08-28T02:33:05.352Z,21.51
2022-08-28T02:35:31.904Z,21.31
2022-08-28T02:38:00.578Z,21.32
2022-08-28T02:40:27.685Z,21.39
2022-08-28T02:42:54.298Z,21.17
2022-08-28T02:45:20.897Z,21.33
2022-08-28T02:47:47.830Z,21.32
2022-08-28T02:50:18.975Z,21.25
2022-08-28T02:52:46.534Z,21.47
2022-08-28T02:55:14.287Z,21.36
2022-08-28T02:57:41.308Z,21.15
2022-08-28T03:00:10.749Z,21.31
2022-08-28T03:02:37.389Z,21.20
2022-08-28T03:05:04.330Z,21.14
2022-08-28T03:07:30.899Z,21.19
2022-08-28T03:09:57.467Z,21.26
2022-08-28T03:12:26.808Z,21.01
2022-08-28T03:14:54.750Z,21.21
2022-08-28T03:17:22.197Z,21.17
2022-08-28T03:19:50.154Z,21.03
2022-08-28T03:22:17.468Z,20.89
2022-08-28T03:24:45.099Z,20.86
2022-08-28T03:27:11.833Z,20.94
2022-08-28T03:29:38.389Z,20.96
2022-08-28T03:32:04.961Z,20.85
2022-08-28T03:34:31.545Z,20.90
2022-08-28T03:36:58.286Z,20.95
2022-08-28T03:39:24.827Z,20.80
2022-08-28T03:41:51.608Z,20.76
2022-08-28T03:44:18.140Z,20.73
2022-08-28T03:46:44.622Z,20.80
2022-08-28T03:49:11.438Z,20.80
2022-08-28T03:51:38.446Z,20.91
2022-08-28T03:54:05.438Z,20.72
2022-08-28T03:56:32.294Z,20.69
2022-08-28T03:59:00.568Z,20.67
2022-08-28T04:01:27.314Z,20.67
2022-08-28T04:03:57.405Z,20.69
2022-08-28T04:06:43.994Z,20.78
2022-08-28T04:09:10.578Z,20.78
2022-08-28T04:11:38.209Z,20.66
2022-08-28T04:14:04.676Z,20.58
2022-08-28T04:16:31.570Z,20.54
2022-08-28T04:18:58.561Z,20.55
2022-08-28T04:21:26.172Z,20.67
2022-08-28T04:23:53.639Z,20.49
2022-08-28T04:26:22.405Z,20.59
2022-08-28T04:28:49.429Z,20.45
2022-08-28T04:31:19.204Z,20.48
2022-08-28T04:34:00.631Z,20.61
2022-08-28T04:36:32.613Z,20.57
2022-08-28T04:39:19.335Z,20.71
2022-08-28T04:41:47.033Z,20.69
2022-08-28T04:44:13.546Z,20.67
2022-08-28T04:46:40.392Z,20.77
2022-08-28T04:49:06.943Z,20.87
2022-08-28T04:51:33.755Z,20.87
2022-08-28T04:54:01.797Z,20.89
2022-08-28T04:56:28.313Z,21.06
2022-08-28T04:58:54.883Z,21.40
2022-08-28T05:01:24.417Z,22.06
2022-08-28T05:03:53.581Z,22.48
2022-08-28T05:06:21.753Z,22.55
2022-08-28T05:08:48.352Z,23.54
2022-08-28T05:11:33.617Z,24.16
2022-08-28T05:14:01.934Z,25.03
2022-08-28T05:16:28.511Z,24.79
2022-08-28T05:19:00.494Z,25.12
2022-08-28T05:21:45.398Z,25.71
2022-08-28T05:24:12.895Z,26.11
2022-08-28T05:26:40.254Z,26.30
2022-08-28T05:29:26.814Z,26.36
2022-08-28T05:31:55.374Z,26.73
2022-08-28T05:34:22.132Z,27.69
2022-08-28T05:36:49.420Z,27.67
2022-08-28T05:39:35.980Z,28.36
2022-08-28T05:42:06.817Z,26.89
2022-08-28T05:44:34.354Z,27.86
2022-08-28T05:47:00.899Z,27.35
2022-08-28T05:49:28.257Z,27.72
2022-08-28T05:51:54.812Z,26.97
2022-08-28T05:54:21.430Z,28.30
2022-08-28T05:56:48.180Z,29.43
2022-08-28T05:59:16.843Z,29.16
2022-08-28T06:01:44.963Z,27.93
2022-08-28T06:04:25.444Z,28.94
2022-08-28T06:10:45.924Z,30.36
2022-08-28T06:13:17.310Z,30.35
2022-08-28T06:15:46.741Z,30.89
2022-08-28T06:18:13.778Z,30.03
2022-08-28T06:20:44.897Z,31.00
2022-08-28T06:23:14.043Z,31.82
2022-08-28T06:25:41.583Z,31.51
2022-08-28T06:28:10.581Z,29.57
2022-08-28T06:30:40.126Z,31.34
2022-08-28T06:33:08.868Z,30.55
2022-08-28T06:35:40.747Z,31.95
2022-08-28T06:38:07.791Z,33.09
2022-08-28T06:40:38.690Z,32.31
2022-08-28T06:43:05.184Z,32.31
2022-08-28T06:45:31.832Z,30.45
2022-08-28T06:47:59.122Z,32.21
2022-08-28T06:50:25.641Z,32.09
2022-08-28T06:52:52.144Z,32.03
2022-08-28T06:55:18.596Z,33.20
2022-08-28T06:57:45.053Z,33.69
2022-08-28T07:00:12.004Z,34.09
2022-08-28T07:02:38.514Z,33.94
2022-08-28T07:05:05.271Z,33.33
2022-08-28T07:07:32.528Z,32.90
2022-08-28T07:09:59.201Z,32.67
2022-08-28T07:12:25.720Z,33.46
2022-08-28T07:14:52.377Z,33.36
2022-08-28T07:17:18.830Z,35.04
2022-08-28T07:19:45.273Z,33.86
2022-08-28T07:22:12.045Z,34.63
2022-08-28T07:24:38.540Z,33.42
2022-08-28T07:27:05.471Z,34.26
2022-08-28T07:29:31.920Z,34.52
2022-08-28T07:31:59.033Z,36.33
2022-08-28T07:34:27.144Z,34.63
2022-08-28T07:36:54.015Z,34.30
2022-08-28T07:39:20.504Z,33.38
2022-08-28T07:41:47.296Z,33.75
2022-08-28T07:44:33.413Z,34.66
2022-08-28T07:47:03.998Z,35.07
2022-08-28T07:49:31.494Z,34.54
2022-08-28T07:51:58.026Z,34.78
2022-08-28T07:54:24.640Z,35.26
2022-08-28T07:56:52.702Z,34.99
2022-08-28T07:59:20.294Z,34.36
2022-08-28T08:01:50.683Z,34.64
2022-08-28T08:04:20.085Z,35.18
2022-08-28T08:06:47.031Z,35.24
2022-08-28T08:09:15.264Z,35.69
2022-08-28T08:11:42.503Z,35.79
2022-08-28T08:14:09.183Z,34.51
2022-08-28T08:16:38.598Z,33.82
2022-08-28T08:19:05.586Z,32.88
2022-08-28T08:21:32.770Z,33.54
2022-08-28T08:23:59.237Z,32.17
2022-08-28T08:26:28.249Z,31.35
2022-08-28T08:28:55.749Z,30.54
2022-08-28T08:31:26.781Z,30.02
2022-08-28T08:33:55.706Z,29.48
2022-08-28T08:36:23.437Z,30.04
2022-08-28T08:38:50.682Z,29.49
2022-08-28T08:41:29.130Z,29.25
2022-08-28T08:43:58.818Z,29.54
2022-08-28T08:46:37.597Z,29.60
2022-08-28T08:49:05.931Z,29.65
2022-08-28T08:51:39.733Z,29.32
2022-08-28T08:54:08.760Z,29.71
2022-08-28T08:56:36.001Z,29.90
2022-08-28T08:59:03.434Z,30.01
2022-08-28T09:01:36.917Z,30.52
2022-08-28T09:04:18.783Z,29.81
2022-08-28T09:06:54.548Z,29.79
2022-08-28T09:09:45.001Z,29.48
2022-08-28T09:12:14.995Z,29.64
2022-08-28T09:15:09.004Z,30.21
2022-08-28T09:17:42.509Z,30.07
2022-08-28T09:20:10.793Z,30.70
2022-08-28T09:22:38.094Z,30.76
2022-08-28T09:25:06.059Z,30.94
2022-08-28T09:27:39.390Z,31.29
2022-08-28T09:30:08.381Z,32.04
2022-08-28T09:32:38.735Z,32.37
2022-08-28T09:35:13.150Z,31.20
2022-08-28T09:37:40.585Z,31.59
2022-08-28T09:40:16.449Z,31.63
2022-08-28T09:43:16.912Z,30.90
2022-08-28T09:45:43.424Z,31.08
2022-08-28T09:48:23.759Z,31.60
2022-08-28T09:51:03.352Z,31.32
2022-08-28T09:53:30.921Z,32.32
2022-08-28T09:55:57.421Z,32.23
2022-08-28T09:58:28.325Z,31.80
2022-08-28T10:01:04.275Z,31.51
2022-08-28T10:03:37.129Z,31.87
2022-08-28T10:06:13.776Z,31.82
2022-08-28T10:08:46.153Z,31.95
2022-08-28T10:11:24.625Z,32.46
2022-08-28T10:14:00.872Z,32.96
2022-08-28T10:16:47.109Z,33.44
2022-08-28T10:19:36.221Z,33.12
2022-08-28T10:22:27.623Z,31.60
2022-08-28T10:25:03.350Z,32.65
2022-08-28T10:27:48.758Z,32.82
2022-08-28T10:30:17.396Z,33.07
2022-08-28T10:32:49.782Z,33.58
2022-08-28T10:35:20.687Z,33.51
2022-08-28T10:37:47.609Z,33.30
2022-08-28T10:40:36.002Z,33.30
2022-08-28T10:43:06.059Z,33.67
2022-08-28T10:45:34.840Z,33.12
2022-08-28T10:48:06.750Z,33.26
2022-08-28T10:50:39.005Z,32.87
2022-08-28T10:53:11.605Z,32.83
2022-08-28T10:55:43.787Z,33.48
2022-08-28T10:58:25.133Z,33.49
2022-08-28T11:00:56.971Z,33.38
2022-08-28T11:03:34.551Z,33.26
2022-08-28T11:06:05.771Z,32.87
2022-08-28T11:08:33.625Z,33.15
2022-08-28T11:11:01.987Z,33.28
2022-08-28T11:13:40.676Z,32.66
2022-08-28T11:16:18.752Z,32.33
2022-08-28T11:18:47.995Z,33.82
2022-08-28T11:21:17.617Z,33.66
2022-08-28T11:23:47.091Z,33.99
2022-08-28T11:26:15.021Z,33.79
2022-08-28T11:28:47.320Z,33.75
2022-08-28T11:31:19.164Z,33.06
2022-08-28T11:33:58.977Z,33.24
2022-08-28T11:36:29.925Z,33.67
2022-08-28T11:38:57.067Z,33.74
2022-08-28T11:41:27.400Z,33.32
2022-08-28T11:44:17.896Z,33.53
2022-08-28T11:46:52.287Z,33.95
2022-08-28T11:49:26.235Z,33.67
2022-08-28T11:52:18.567Z,33.75
2022-08-28T11:55:03.883Z,34.53
2022-08-28T11:57:49.619Z,34.18
2022-08-28T12:00:28.934Z,34.45
2022-08-28T12:03:13.261Z,34.74
2022-08-28T12:05:41.857Z,34.29
2022-08-28T12:08:11.594Z,34.39
2022-08-28T12:10:38.010Z,34.40
2022-08-28T12:13:09.020Z,34.38
2022-08-28T12:15:35.559Z,34.09
2022-08-28T12:18:21.973Z,34.88
2022-08-28T12:20:51.456Z,33.93
2022-08-28T12:23:23.979Z,34.72
2022-08-28T12:25:58.041Z,35.28
2022-08-28T12:28:27.791Z,34.94
2022-08-28T12:31:13.066Z,33.26
2022-08-28T12:33:50.629Z,33.73
2022-08-28T12:36:18.575Z,34.30
2022-08-28T12:38:49.133Z,34.18
2022-08-28T12:41:17.177Z,34.13
2022-08-28T12:43:46.817Z,33.69
2022-08-28T12:46:35.198Z,34.26
2022-08-28T12:49:03.243Z,34.32
2022-08-28T12:51:34.205Z,34.81
2022-08-28T12:54:02.740Z,34.24
2022-08-28T12:56:34.022Z,33.64
2022-08-28T12:59:19.297Z,33.88
2022-08-28T13:01:46.238Z,34.26
2022-08-28T13:04:40.893Z,34.22
2022-08-28T13:07:30.653Z,33.89
2022-08-28T13:09:59.621Z,32.87
2022-08-28T13:12:55.133Z,33.60
2022-08-28T13:15:39.460Z,33.92
2022-08-28T13:18:05.960Z,33.58
2022-08-28T13:20:33.997Z,34.44
2022-08-28T13:23:01.628Z,34.69
2022-08-28T13:25:31.061Z,34.13
2022-08-28T13:28:03.022Z,34.28
2022-08-28T13:30:31.039Z,34.21
2022-08-28T13:33:01.943Z,33.95
2022-08-28T13:35:33.225Z,34.20
2022-08-28T13:38:01.373Z,34.25
2022-08-28T13:40:56.425Z,34.34
2022-08-28T13:43:18.239Z,33.73
2022-08-28T13:45:45.797Z,32.86
2022-08-28T13:48:13.297Z,32.60
2022-08-28T13:50:42.000Z,33.31
2022-08-28T13:53:11.444Z,33.54
2022-08-28T13:55:39.184Z,32.88
2022-08-28T13:58:05.675Z,33.90
2022-08-28T14:00:34.488Z,33.14
2022-08-28T14:03:19.416Z,33.10
2022-08-28T14:05:45.867Z,32.96
2022-08-28T14:08:13.190Z,32.98
2022-08-28T14:10:40.005Z,33.31
2022-08-28T14:13:06.751Z,32.97
2022-08-28T14:15:33.387Z,32.70
2022-08-28T14:17:59.851Z,33.32
2022-08-28T14:20:26.636Z,32.74
2022-08-28T14:22:53.096Z,32.85
2022-08-28T14:25:19.548Z,33.07
2022-08-28T14:27:46.008Z,31.67
2022-08-28T14:30:12.801Z,32.08
2022-08-28T14:32:39.496Z,31.88
2022-08-28T14:35:06.237Z,32.17
2022-08-28T14:37:33.258Z,31.47
2022-08-28T14:39:59.770Z,30.98
2022-08-28T14:42:27.046Z,31.43
2022-08-28T14:44:53.672Z,31.82
2022-08-28T14:47:20.529Z,31.48
2022-08-28T14:49:47.027Z,31.31
2022-08-28T14:52:13.675Z,31.54
2022-08-28T14:54:40.579Z,31.76
2022-08-28T14:57:07.027Z,31.67
2022-08-28T14:59:34.054Z,31.93
2022-08-28T15:02:01.801Z,31.54
2022-08-28T15:04:35.325Z,31.17
2022-08-28T15:07:02.972Z,30.91
2022-08-28T15:09:29.476Z,31.27
2022-08-28T15:11:56.227Z,30.69
2022-08-28T15:14:22.932Z,30.71
2022-08-28T15:16:49.632Z,30.72
2022-08-28T15:19:19.136Z,30.81
2022-08-28T15:21:48.254Z,31.03
2022-08-28T15:24:15.813Z,30.46
2022-08-28T15:26:42.444Z,30.39
2022-08-28T15:29:10.789Z,30.27
2022-08-28T15:31:39.138Z,30.29
2022-08-28T15:34:06.650Z,30.35
2022-08-28T15:36:40.441Z,30.10
2022-08-28T15:39:26.187Z,30.11
2022-08-28T15:41:52.917Z,30.15
2022-08-28T15:44:19.488Z,29.96
2022-08-28T15:47:01.073Z,30.21
2022-08-28T15:49:28.432Z,30.32
2022-08-28T15:51:56.071Z,29.99
2022-08-28T15:54:22.992Z,30.01
2022-08-28T15:56:50.800Z,29.87
2022-08-28T15:59:20.848Z,29.63
2022-08-28T16:01:47.392Z,29.52
2022-08-28T16:04:14.433Z,29.48
2022-08-28T16:06:41.886Z,28.99
2022-08-28T16:09:09.095Z,28.79
2022-08-28T16:11:35.687Z,28.57
2022-08-28T16:14:05.244Z,28.50
2022-08-28T16:16:32.531Z,28.49
2022-08-28T16:18:59.235Z,28.28
2022-08-28T16:21:27.488Z,28.28
2022-08-28T16:23:54.837Z,28.22
2022-08-28T16:26:21.449Z,27.99
2022-08-28T16:28:47.988Z,27.99
2022-08-28T16:31:20.490Z,27.68
2022-08-28T16:33:47.879Z,27.77
2022-08-28T16:36:15.136Z,27.69
2022-08-28T16:38:43.034Z,27.61
2022-08-28T16:41:20.402Z,27.57
2022-08-28T16:43:47.278Z,27.72
2022-08-28T16:46:16.747Z,27.59
2022-08-28T16:48:44.232Z,27.41
2022-08-28T16:51:11.426Z,27.27
2022-08-28T16:53:40.630Z,27.26
2022-08-28T16:56:08.968Z,27.08
2022-08-28T16:58:36.575Z,27.10
2022-08-28T17:01:03.702Z,26.97
2022-08-28T17:03:32.564Z,26.99
2022-08-28T17:06:03.177Z,26.85
2022-08-28T17:08:29.618Z,26.71
2022-08-28T17:10:56.092Z,26.76
2022-08-28T17:13:22.540Z,26.75
2022-08-28T17:15:49.051Z,26.75
2022-08-28T17:18:15.541Z,26.52
2022-08-28T17:21:00.638Z,26.62
2022-08-28T17:23:27.093Z,26.61
2022-08-28T17:25:53.537Z,26.44
2022-08-28T17:28:20.052Z,26.40
2022-08-28T17:30:46.632Z,26.44
2022-08-28T17:33:13.439Z,26.32
2022-08-28T17:35:41.779Z,26.27
2022-08-28T17:38:08.778Z,26.18
2022-08-28T17:40:35.293Z,26.11
2022-08-28T17:43:02.925Z,26.10
2022-08-28T17:45:29.539Z,26.06
2022-08-28T17:47:56.018Z,25.96
2022-08-28T17:50:23.151Z,25.85
2022-08-28T17:52:50.074Z,25.96
2022-08-28T17:55:18.215Z,25.95
2022-08-28T17:57:44.891Z,25.79
2022-08-28T18:00:16.232Z,25.73
2022-08-28T18:02:43.515Z,25.91
2022-08-28T18:05:11.084Z,25.68
2022-08-28T18:07:37.696Z,25.67
2022-08-28T18:10:05.000Z,25.73
2022-08-28T18:12:31.467Z,25.74
2022-08-28T18:14:58.070Z,25.79
2022-08-28T18:17:25.447Z,25.64
2022-08-28T18:19:51.921Z,25.58
2022-08-28T18:22:18.357Z,25.57
2022-08-28T18:24:44.905Z,25.68
2022-08-28T18:27:11.387Z,25.76
2022-08-28T18:29:39.512Z,25.91
2022-08-28T18:32:06.249Z,25.82
2022-08-28T18:34:32.946Z,25.74
2022-08-28T18:36:59.467Z,25.67
2022-08-28T18:39:29.448Z,25.79
2022-08-28T18:41:56.187Z,25.82
2022-08-28T18:44:24.349Z,25.70
2022-08-28T18:46:51.341Z,25.78
2022-08-28T18:49:17.789Z,25.82
2022-08-28T18:51:44.827Z,25.68
2022-08-28T18:54:13.427Z,25.78
2022-08-28T18:56:40.065Z,25.65
2022-08-28T18:59:07.999Z,25.70
2022-08-28T19:01:34.784Z,25.66
2022-08-28T19:04:01.476Z,25.65
2022-08-28T19:06:27.927Z,25.69
2022-08-28T19:08:54.392Z,25.64
2022-08-28T19:11:20.826Z,25.78
2022-08-28T19:13:47.724Z,25.74
2022-08-28T19:16:17.987Z,25.72
2022-08-28T19:18:45.737Z,25.62
2022-08-28T19:21:16.539Z,25.76
2022-08-28T19:23:43.309Z,25.73
2022-08-28T19:26:23.101Z,25.62
2022-08-28T19:28:50.616Z,25.51
2022-08-28T19:31:17.786Z,25.48
2022-08-28T19:33:46.467Z,25.49
2022-08-28T19:36:13.555Z,25.52
2022-08-28T19:38:40.575Z,25.36
2022-08-28T19:41:08.199Z,25.14
2022-08-28T19:43:43.263Z,25.23
2022-08-28T19:46:18.242Z,25.22
2022-08-28T19:48:47.789Z,25.19
2022-08-28T19:51:17.445Z,25.19
2022-08-28T19:53:44.292Z,25.28
2022-08-28T19:56:10.825Z,25.32
2022-08-28T19:58:37.330Z,25.09
2022-08-28T20:01:04.176Z,24.99
2022-08-28T20:03:30.721Z,24.86
2022-08-28T20:05:57.238Z,24.94
2022-08-28T20:08:23.926Z,24.83
2022-08-28T20:10:51.149Z,24.78
2022-08-28T20:13:17.918Z,24.88
2022-08-28T20:15:45.692Z,24.76
2022-08-28T20:18:13.122Z,24.69
2022-08-28T20:20:39.995Z,24.61
2022-08-28T20:23:07.309Z,24.63
2022-08-28T20:25:34.931Z,24.37
2022-08-28T20:28:02.084Z,24.46
2022-08-28T20:30:28.575Z,24.41
2022-08-28T20:32:55.046Z,24.29
2022-08-28T20:35:22.134Z,24.15
2022-08-28T20:37:51.089Z,24.18
2022-08-28T20:40:18.883Z,24.07
2022-08-28T20:42:45.967Z,24.06
2022-08-28T20:45:13.390Z,24.19
2022-08-28T20:47:39.863Z,23.84
2022-08-28T20:50:06.711Z,23.81
2022-08-28T20:52:33.228Z,24.00
2022-08-28T20:54:59.761Z,23.94
2022-08-28T20:57:26.533Z,23.83
2022-08-28T20:59:54.138Z,23.63
2022-08-28T21:02:22.551Z,23.60
2022-08-28T21:04:49.297Z,23.29
2022-08-28T21:07:17.174Z,23.26
2022-08-28T21:10:04.607Z,23.23
2022-08-28T21:12:30.878Z,23.11
2022-08-28T21:14:57.640Z,22.95
2022-08-28T21:17:29.040Z,22.83
2022-08-28T21:19:56.760Z,22.56
2022-08-28T21:22:23.316Z,22.62
2022-08-28T21:24:49.946Z,22.69
2022-08-28T21:27:16.483Z,22.56
2022-08-28T21:29:46.035Z,22.48
2022-08-28T21:32:12.801Z,22.54
2022-08-28T21:34:39.326Z,22.54
2022-08-28T21:37:06.478Z,22.52
2022-08-28T21:39:33.546Z,22.44
2022-08-28T21:42:00.174Z,22.21
2022-08-28T21:44:26.657Z,22.17
2022-08-28T21:46:53.278Z,22.14
2022-08-28T21:49:19.841Z,22.06
2022-08-28T21:51:46.313Z,21.93
2022-08-28T21:54:13.274Z,21.69
2022-08-28T21:56:40.243Z,21.74
2022-08-28T21:59:06.865Z,21.68
2022-08-28T22:01:33.408Z,21.51
2022-08-28T22:04:00.025Z,21.47
2022-08-28T22:06:26.518Z,21.39
2022-08-28T22:08:54.021Z,21.34
2022-08-28T22:11:24.547Z,21.29
2022-08-28T22:13:52.204Z,21.13
2022-08-28T22:16:18.874Z,21.17
2022-08-28T22:18:45.430Z,21.18
2022-08-28T22:21:34.650Z,21.23
2022-08-28T22:24:01.652Z,21.20
2022-08-28T22:26:28.155Z,21.26
2022-08-28T22:28:55.920Z,21.23
2022-08-28T22:31:23.029Z,21.12
2022-08-28T22:33:50.325Z,21.09
2022-08-28T22:36:17.450Z,21.18
2022-08-28T22:38:50.480Z,21.29
2022-08-28T22:41:20.296Z,21.31
2022-08-28T22:43:48.217Z,21.28
2022-08-28T22:46:17.020Z,21.42
2022-08-28T22:48:43.597Z,21.34
2022-08-28T22:51:14.507Z,21.48
2022-08-28T22:53:43.304Z,21.32
2022-08-28T22:56:10.440Z,21.43
2022-08-28T22:58:37.575Z,21.30
2022-08-28T23:01:09.089Z,21.33
2022-08-28T23:03:35.743Z,21.26
2022-08-28T23:06:02.347Z,21.28
2022-08-28T23:08:33.754Z,21.33
2022-08-28T23:11:00.922Z,21.34
2022-08-28T23:13:27.750Z,21.33
2022-08-28T23:15:54.217Z,21.28
2022-08-28T23:18:21.217Z,21.19
2022-08-28T23:20:47.955Z,21.19
2022-08-28T23:23:17.233Z,21.02
2022-08-28T23:25:43.848Z,20.80
2022-08-28T23:28:10.329Z,20.83
2022-08-28T23:30:38.938Z,20.72
2022-08-28T23:33:08.483Z,20.81
2022-08-28T23:35:35.338Z,20.74
2022-08-28T23:38:01.806Z,20.60
2022-08-28T23:40:30.423Z,20.52
2022-08-28T23:42:58.121Z,20.57
2022-08-28T23:45:25.711Z,20.57
2022-08-28T23:47:53.892Z,20.61
2022-08-28T23:50:21.633Z,20.61
2022-08-28T23:52:48.692Z,20.59
2022-08-28T23:55:16.413Z,20.60
2022-08-28T23:57:44.030Z,20.48
